Time;durP1;ratioP1;P1;durP2;ratioP2;P2;SDS_P1;SDS_P2;PMS_P1;PMS_P2;Temp;Humidity;BMP_temperature;BMP_pressure;BME280_temperature;BME280_humidity;BME280_pressure;Samples;Min_cycle;Max_cycle;Signal;HPM_P1;HPM_P2
2023/08/13 00:02:02;126594.00;0.42;219.46;0.00;0.00;0.62;;;;;24.50;8.40;;;;;;2284657;60;2001;-86
2023/08/13 00:04:29;179465.00;0.60;310.57;30284.00;0.10;53.07;;;;;24.40;9.20;;;;;;2284653;60;1284;-87
2023/08/13 00:06:57;63224.00;0.21;110.05;0.00;0.00;0.62;;;;;24.50;8.60;;;;;;2284738;60;1043;-87
2023/08/13 00:09:24;635974.00;2.12;1096.38;40674.00;0.14;71.05;;;;;24.30;9.00;;;;;;2284639;60;1590;-87
2023/08/13 00:11:51;1064609.00;3.55;1847.25;56934.00;0.19;99.18;;;;;24.20;9.30;;;;;;2284550;60;1683;-88
2023/08/13 00:14:18;1164127.00;3.88;2025.49;41850.00;0.14;73.09;;;;;24.20;6.90;;;;;;2284648;60;1298;-86
2023/08/13 00:16:45;1307007.00;4.36;2284.93;161354.00;0.54;279.37;;;;;24.30;8.50;;;;;;2284698;60;918;-87
2023/08/13 00:19:12;408659.00;1.36;704.69;71908.00;0.24;125.06;;;;;24.40;8.00;;;;;;2284610;60;977;-86
2023/08/13 00:21:39;858583.00;2.86;1483.49;268874.00;0.90;464.41;;;;;24.30;7.50;;;;;;2284647;60;1923;-87
2023/08/13 00:24:08;181615.00;0.61;314.27;0.00;0.00;0.62;;;;;24.30;8.90;;;;;;2284634;60;1379;-88
2023/08/13 00:26:36;0.00;0.00;0.62;0.00;0.00;0.62;;;;;24.30;9.30;;;;;;2284683;60;1046;-88
2023/08/13 00:29:03;120652.00;0.40;209.21;720.00;0.00;1.87;;;;;24.30;8.70;;;;;;2284631;60;1150;-87
2023/08/13 00:31:30;141224.00;0.47;244.68;0.00;0.00;0.62;;;;;24.20;9.30;;;;;;2284507;60;1091;-88
2023/08/13 00:33:57;6608.00;0.02;12.07;0.00;0.00;0.62;;;;;24.10;8.80;;;;;;2284641;60;1374;-87
2023/08/13 00:36:24;58719.00;0.20;102.26;0.00;0.00;0.62;;;;;24.10;9.10;;;;;;2284626;60;1081;-86
2023/08/13 00:38:50;54178.00;0.18;94.41;0.00;0.00;0.62;;;;;24.10;9.20;;;;;;2284583;60;1006;-87
2023/08/13 00:41:19;46633.00;0.16;81.36;0.00;0.00;0.62;;;;;24.10;9.20;;;;;;2284579;60;2009;-85
2023/08/13 00:43:46;174836.00;0.58;302.60;0.00;0.00;0.62;;;;;24.10;7.50;;;;;;2285103;55;3791;-86
2023/08/13 00:46:13;109335.00;0.36;189.68;0.00;0.00;0.62;;;;;24.20;9.00;;;;;;2280374;61;1049;-87
2023/08/13 00:48:41;102287.00;0.34;177.52;0.00;0.00;0.62;;;;;24.10;9.00;;;;;;2280414;61;969;-87
2023/08/13 00:51:11;996044.00;3.32;1725.47;96664.00;0.32;167.81;;;;;24.10;9.20;;;;;;2280455;61;1051;-86
2023/08/13 00:53:45;1263023.00;4.21;2204.59;193883.00;0.65;335.39;;;;;24.10;9.20;;;;;;2280400;61;1355;-87
2023/08/13 00:56:14;1352883.00;4.51;2369.22;152634.00;0.51;264.35;;;;;24.00;9.10;;;;;;2280457;61;1059;-88
2023/08/13 00:58:43;1356200.00;4.52;2375.33;26047.00;0.09;45.74;;;;;24.00;9.10;;;;;;2280313;61;1048;-88
2023/08/13 01:01:11;889315.00;2.96;1537.36;197004.00;0.66;340.77;;;;;23.80;8.90;;;;;;2280267;61;2006;-88
2023/08/13 01:03:38;118101600.00;393.67;66727184.00;73456.00;0.24;127.73;;;;;23.70;9.80;;;;;;2280340;61;1406;-88
2023/08/13 01:06:12;169034.00;0.56;292.60;64820.00;0.22;112.81;;;;;23.70;9.60;;;;;;2280276;61;1090;-88
2023/08/13 01:08:49;186439.00;0.62;322.58;78012.00;0.26;135.60;;;;;23.70;9.70;;;;;;2280421;61;1055;-88
2023/08/13 01:11:25;370770.00;1.24;639.56;108873.00;0.36;188.89;;;;;23.70;9.60;;;;;;2280385;61;1068;-87
2023/08/13 01:14:04;13854.00;0.05;24.63;0.00;0.00;0.62;;;;;23.70;9.20;;;;;;2280253;61;1453;-87
2023/08/13 01:16:33;37960.00;0.13;66.36;0.00;0.00;0.62;;;;;23.80;8.90;;;;;;2280416;61;1126;-88
2023/08/13 01:19:00;0.00;0.00;0.62;0.00;0.00;0.62;;;;;23.70;10.20;;;;;;2280337;61;1025;-89
2023/08/13 01:21:27;0.00;0.00;0.62;0.00;0.00;0.62;;;;;23.60;10.40;;;;;;2280277;61;2097;-88
2023/08/13 01:23:56;0.00;0.00;0.62;0.00;0.00;0.62;;;;;23.20;12.20;;;;;;2280297;61;1331;-87
2023/08/13 01:26:28;52411.00;0.17;91.36;0.00;0.00;0.62;;;;;23.20;12.70;;;;;;2280283;61;1747;-86
2023/08/13 01:29:04;173054.00;0.58;299.53;0.00;0.00;0.62;;;;;23.40;11.90;;;;;;2280191;61;1573;-87
2023/08/13 01:31:36;123438.00;0.41;214.01;0.00;0.00;0.62;;;;;23.50;11.30;;;;;;2280287;61;1104;-87
2023/08/13 01:34:04;15538.00;0.05;27.54;0.00;0.00;0.62;;;;;23.50;11.20;;;;;;2280216;61;1438;-88
2023/08/13 01:36:32;216087.00;0.72;373.61;4051.00;0.01;7.64;;;;;23.30;11.50;;;;;;2280313;61;1029;-88
2023/08/13 01:39:02;555093.00;1.85;956.74;40878.00;0.14;71.41;;;;;23.40;10.80;;;;;;2280167;61;1012;-87
2023/08/13 01:41:36;1795527.00;5.99;3212.58;208071.00;0.69;359.82;;;;;23.10;13.00;;;;;;2280176;61;2004;-90
2023/08/13 01:44:03;1060597.00;3.54;1840.10;104247.00;0.35;180.90;;;;;22.60;14.70;;;;;;2280199;61;1533;-87
2023/08/13 01:46:30;1447177.00;4.82;2544.11;104647.00;0.35;181.59;;;;;22.40;16.10;;;;;;2280279;61;961;-88
2023/08/13 01:48:57;378666.00;1.26;653.13;69756.00;0.23;121.34;;;;;22.80;14.90;;;;;;2280215;61;1550;-88
2023/08/13 01:51:24;165634.00;0.55;286.75;64014.00;0.21;111.42;;;;;23.00;13.50;;;;;;2280219;61;1069;-89
2023/08/13 01:53:50;258759.00;0.86;447.01;73361.00;0.24;127.57;;;;;23.30;13.30;;;;;;2280204;61;1363;-88
2023/08/13 01:56:19;490038.00;1.63;844.67;78200.00;0.26;135.93;;;;;23.60;9.70;;;;;;2280225;61;1493;-85
2023/08/13 01:58:45;121215.00;0.40;210.18;0.00;0.00;0.62;;;;;23.80;10.70;;;;;;2280138;61;1129;-88
2023/08/13 02:01:12;154227.00;0.51;267.09;0.00;0.00;0.62;;;;;23.80;10.20;;;;;;2280171;61;1561;-87
2023/08/13 02:03:39;132405.00;0.44;229.48;0.00;0.00;0.62;;;;;23.40;11.50;;;;;;2280114;61;1997;-87
2023/08/13 02:06:06;118988.00;0.40;206.34;0.00;0.00;0.62;;;;;23.10;12.70;;;;;;2280272;61;954;-88
2023/08/13 02:08:33;39931.00;0.13;69.77;0.00;0.00;0.62;;;;;23.40;11.40;;;;;;2280199;61;1690;-88
2023/08/13 02:11:00;115153.00;0.38;199.72;0.00;0.00;0.62;;;;;23.50;11.10;;;;;;2280150;61;1070;-87
2023/08/13 02:13:28;120009.00;0.40;208.10;0.00;0.00;0.62;;;;;23.70;10.20;;;;;;2280173;61;1306;-87
2023/08/13 02:15:55;95002.00;0.32;164.94;0.00;0.00;0.62;;;;;23.60;11.10;;;;;;2280127;61;1541;-87
2023/08/13 02:18:22;0.00;0.00;0.62;0.00;0.00;0.62;;;;;23.80;9.50;;;;;;2280185;61;1075;-88
2023/08/13 02:20:49;198223.00;0.66;342.86;0.00;0.00;0.62;;;;;23.80;7.90;;;;;;2280193;61;1066;-88
2023/08/13 02:23:15;309641.00;1.03;534.49;0.00;0.00;0.62;;;;;23.80;8.00;;;;;;2280038;61;1996;-88
2023/08/13 02:25:42;1080575.00;3.60;1875.72;120527.00;0.40;208.99;;;;;23.80;9.30;;;;;;2280117;61;1344;-88
2023/08/13 02:28:09;1103502.00;3.68;1916.69;75918.00;0.25;131.99;;;;;23.90;8.70;;;;;;2280044;61;1083;-87
2023/08/13 02:30:39;117209824.00;390.70;65225688.00;72128.00;0.24;125.44;;;;;24.00;7.20;;;;;;2280123;61;1091;-87
2023/08/13 02:33:06;175763.00;0.59;304.19;64156.00;0.21;111.66;;;;;23.70;9.10;;;;;;2280059;61;1294;-87
2023/08/13 02:35:33;213214.00;0.71;368.67;65026.00;0.22;113.16;;;;;23.40;10.90;;;;;;2280111;61;1045;-87
2023/08/13 02:37:59;126378.00;0.42;219.08;0.00;0.00;0.62;;;;;23.50;11.30;;;;;;2280191;61;901;-88
2023/08/13 02:40:26;161052.00;0.54;278.85;0.00;0.00;0.62;;;;;23.70;11.10;;;;;;2280151;61;1028;-87
2023/08/13 02:42:54;78758.00;0.26;136.89;0.00;0.00;0.62;;;;;23.80;9.40;;;;;;2279991;61;2000;-89
2023/08/13 02:45:21;74474.00;0.25;129.49;0.00;0.00;0.62;;;;;23.80;8.90;;;;;;2280041;61;1561;-88
2023/08/13 02:47:49;172078.00;0.57;297.85;0.00;0.00;0.62;;;;;23.80;9.30;;;;;;2280055;61;1742;-87
2023/08/13 02:50:16;49245.00;0.16;85.88;0.00;0.00;0.62;;;;;23.90;9.60;;;;;;2280103;61;1031;-88
2023/08/13 02:52:43;88168.00;0.29;153.14;0.00;0.00;0.62;;;;;23.90;9.10;;;;;;2280093;61;1061;-88
2023/08/13 02:55:10;641155.00;2.14;1105.34;173136.00;0.58;299.67;;;;;23.80;10.30;;;;;;2280005;61;1574;-88
2023/08/13 02:57:37;1820776.00;6.07;3262.58;221049.00;0.74;382.15;;;;;23.80;10.60;;;;;;2280020;61;1066;-89
2023/08/13 03:00:04;1560791.00;5.20;2758.04;110060.00;0.37;190.93;;;;;24.00;9.70;;;;;;2280136;61;1067;-89
2023/08/13 03:02:31;545193.00;1.82;939.67;90923.00;0.30;157.90;;;;;23.90;10.20;;;;;;2280256;61;2000;-88
2023/08/13 03:05:01;286257.00;0.95;494.29;68475.00;0.23;119.13;;;;;23.90;11.70;;;;;;2280310;61;2144;-88
2023/08/13 03:07:28;0.00;0.00;0.62;0.00;0.00;0.62;;;;;23.90;10.90;;;;;;2280250;61;1699;-87
2023/08/13 03:09:54;199302.00;0.66;344.72;50069.00;0.17;87.31;;;;;23.90;11.80;;;;;;2280245;61;1638;-89
2023/08/13 03:12:21;75444.00;0.25;131.17;0.00;0.00;0.62;;;;;23.80;11.50;;;;;;2280361;61;1074;-87
2023/08/13 03:17:17;700051.00;2.33;1207.33;0.00;0.00;0.62;;;;;23.90;10.60;;;;;;817122;40;3490;-89
2023/08/13 03:19:44;90147.00;0.30;156.56;0.00;0.00;0.62;;;;;24.10;10.10;;;;;;2276176;61;1092;-87
2023/08/13 03:22:13;169016.00;0.56;292.57;0.00;0.00;0.62;;;;;24.00;11.50;;;;;;2276497;61;1906;-87
2023/08/13 03:24:40;211037.00;0.70;364.92;0.00;0.00;0.62;;;;;23.90;12.00;;;;;;2276917;61;2380;-88
2023/08/13 03:44:45;981624.00;3.27;1699.95;15467.00;0.05;27.42;;;;;23.90;13.10;;;;;;2280141;61;1304;-91
2023/08/13 03:47:12;203953.00;0.68;352.73;0.00;0.00;0.62;;;;;24.00;13.40;;;;;;2277356;61;1041;-90
2023/08/13 05:25:24;597041.00;1.99;1029.11;0.00;0.00;0.62;;;;;24.20;13.70;;;;;;2284873;55;3702;-88
2023/08/13 05:30:23;493167.00;1.64;850.06;0.00;0.00;0.62;;;;;24.30;13.00;;;;;;2282462;61;1249;-87
2023/08/13 05:32:50;112984.00;0.38;195.98;0.00;0.00;0.62;;;;;24.30;13.50;;;;;;2280632;60;1257;-87
2023/08/13 05:35:17;102102.00;0.34;177.20;26014.00;0.09;45.68;;;;;24.20;14.50;;;;;;2280701;60;1012;-87
2023/08/13 05:37:44;473944.00;1.58;816.98;20025.00;0.07;35.31;;;;;24.20;12.90;;;;;;2291875;56;3809;-87
2023/08/13 05:42:42;665335.00;2.22;1147.18;0.00;0.00;0.62;;;;;24.50;11.10;;;;;;2282460;61;1898;-88
2023/08/13 05:45:10;124925.00;0.42;216.58;0.00;0.00;0.62;;;;;24.60;12.30;;;;;;2299180;39;3672;-87
2023/08/13 05:50:09;285947.00;0.95;493.76;0.00;0.00;0.62;;;;;24.40;13.20;;;;;;2282492;61;1306;-90
2023/08/13 05:55:06;605310.00;2.02;1043.39;0.00;0.00;0.62;;;;;24.50;13.10;;;;;;2281917;60;1320;-88
2023/08/13 05:57:33;486547.00;1.62;838.67;0.00;0.00;0.62;;;;;24.50;13.70;;;;;;2280410;60;1102;-88
2023/08/13 06:00:02;52624.00;0.18;91.72;0.00;0.00;0.62;;;;;24.50;13.60;;;;;;2280453;60;1018;-87
2023/08/13 06:02:28;396673.00;1.32;684.09;0.00;0.00;0.62;;;;;24.60;10.90;;;;;;2280331;60;1928;-87
2023/08/13 06:07:28;348927.00;1.16;602.02;0.00;0.00;0.62;;;;;24.70;9.60;;;;;;2281616;61;1339;-89
2023/08/13 06:24:52;1639023.00;5.46;2907.55;100676.00;0.34;174.74;;;;;24.40;14.40;;;;;;2277839;61;1408;-89
2023/08/13 06:27:21;118694640.00;395.65;67738360.00;63276.00;0.21;110.14;;;;;24.50;14.30;;;;;;2276288;61;1052;-88
2023/08/13 06:44:53;1407762.00;4.69;2470.73;70498.00;0.23;122.62;;;;;24.40;15.60;;;;;;2313527;40;3484;-89
2023/08/13 07:37:45;1387887.00;4.63;2433.88;0.00;0.00;0.62;;;;;25.80;13.50;;;;;;2015688;40;3433;-86
2023/08/13 07:45:14;355036.00;1.18;612.52;0.00;0.00;0.62;;;;;25.80;14.30;;;;;;2282167;55;3651;-87
2023/08/13 07:47:41;55885.00;0.19;97.36;0.00;0.00;0.62;;;;;26.30;13.10;;;;;;2280774;61;1060;-89
2023/08/13 07:50:09;208394.00;0.69;360.37;0.00;0.00;0.62;;;;;26.30;13.10;;;;;;2312242;56;3772;-87
2023/08/13 07:52:36;115785.00;0.39;200.81;0.00;0.00;0.62;;;;;26.30;14.00;;;;;;2281573;61;1101;-88
2023/08/13 07:55:05;459373.00;1.53;791.91;42208.00;0.14;73.71;;;;;26.40;12.10;;;;;;2277620;61;2020;-90
2023/08/13 07:57:32;96468.00;0.32;167.47;0.00;0.00;0.62;;;;;27.00;11.70;;;;;;2293067;55;3758;-88
2023/08/13 08:02:28;618051.00;2.06;1065.40;0.00;0.00;0.62;;;;;27.00;10.20;;;;;;2278426;61;1961;-87
2023/08/13 08:09:52;462041.00;1.54;796.50;0.00;0.00;0.62;;;;;27.70;11.30;;;;;;2286943;60;1619;-88
2023/08/13 08:12:21;320277.00;1.07;552.77;46638.00;0.16;81.37;;;;;28.10;10.00;;;;;;2284885;60;1575;-88
2023/08/13 08:14:48;91162.00;0.30;158.31;0.00;0.00;0.62;;;;;28.70;6.60;;;;;;2284825;60;1601;-87
2023/08/13 08:17:14;176020.00;0.59;304.64;0.00;0.00;0.62;;;;;28.90;5.30;;;;;;2284943;60;1044;-89
2023/08/13 08:19:41;218917.00;0.73;378.48;0.00;0.00;0.62;;;;;28.80;5.10;;;;;;2285027;60;1056;-86
2023/08/13 08:22:08;92426.00;0.31;160.50;0.00;0.00;0.62;;;;;28.50;7.70;;;;;;2284954;60;1184;-86
2023/08/13 08:24:35;52457.00;0.17;91.44;0.00;0.00;0.62;;;;;28.50;7.60;;;;;;2284912;60;1963;-87
2023/08/13 08:27:03;84097.00;0.28;146.11;0.00;0.00;0.62;;;;;28.60;6.60;;;;;;2284941;60;990;-87
2023/08/13 08:29:31;0.00;0.00;0.62;0.00;0.00;0.62;;;;;28.90;6.20;;;;;;2285008;60;1211;-88
2023/08/13 08:31:58;105178.00;0.35;182.51;0.00;0.00;0.62;;;;;29.20;5.50;;;;;;2284862;60;1091;-87
2023/08/13 08:34:25;48556.00;0.16;84.69;0.00;0.00;0.62;;;;;29.50;4.90;;;;;;2284832;60;1376;-89
2023/08/13 08:36:52;13943.00;0.05;24.78;0.00;0.00;0.62;;;;;29.10;3.40;;;;;;2284895;60;2144;-89
2023/08/13 08:39:19;0.00;0.00;0.62;0.00;0.00;0.62;;;;;29.10;5.10;;;;;;2284978;60;1027;-89
2023/08/13 08:41:48;130970.00;0.44;227.00;26926.00;0.09;47.26;;;;;29.10;6.00;;;;;;2284929;60;988;-87
2023/08/13 08:44:21;99226.00;0.33;172.24;0.00;0.00;0.62;;;;;29.60;4.80;;;;;;2284744;60;2004;-86
2023/08/13 08:46:50;114872.00;0.38;199.24;0.00;0.00;0.62;;;;;30.20;1.00;;;;;;2284860;60;1113;-86
2023/08/13 08:51:47;240812.00;0.80;416.15;0.00;0.00;0.62;;;;;30.70;1.90;;;;;;2286222;60;1398;-89
2023/08/13 08:54:14;171171.00;0.57;296.28;17951.00;0.06;31.72;;;;;30.80;1.10;;;;;;2284744;60;1412;-87
2023/08/13 08:56:41;91015.00;0.30;158.06;0.00;0.00;0.62;;;;;31.00;1.00;;;;;;2311049;55;3751;-88
2023/08/13 08:59:08;0.00;0.00;0.62;0.00;0.00;0.62;;;;;30.90;1.40;;;;;;2280611;61;1741;-86
2023/08/13 09:01:35;45188.00;0.15;78.86;0.00;0.00;0.62;;;;;30.80;1.00;;;;;;2280491;61;2262;-87
2023/08/13 09:04:04;32122.00;0.11;56.26;0.00;0.00;0.62;;;;;30.60;1.00;;;;;;2280442;61;1919;-89
2023/08/13 09:06:55;32211.00;0.11;56.41;0.00;0.00;0.62;;;;;30.40;2.20;;;;;;2280674;61;1062;-88
2023/08/13 09:09:22;0.00;0.00;0.62;0.00;0.00;0.62;;;;;30.90;1.00;;;;;;2280601;61;985;-89
2023/08/13 09:11:49;0.00;0.00;0.62;0.00;0.00;0.62;;;;;30.80;1.00;;;;;;2280622;61;1619;-87
2023/08/13 09:14:17;111568.00;0.37;193.54;0.00;0.00;0.62;;;;;30.80;1.00;;;;;;2280581;61;1253;-89
2023/08/13 09:16:46;118633.00;0.40;205.72;0.00;0.00;0.62;;;;;30.30;1.00;;;;;;2280712;61;1038;-88
2023/08/13 09:19:16;25431.00;0.08;44.67;0.00;0.00;0.62;;;;;30.30;1.00;;;;;;2280305;61;2434;-88
2023/08/13 09:24:20;556774.00;1.86;959.64;0.00;0.00;0.62;;;;;29.90;1.30;;;;;;2286469;60;1969;-88
2023/08/13 09:26:47;237045.00;0.79;409.67;0.00;0.00;0.62;;;;;30.00;1.80;;;;;;2345270;40;3579;-88
2023/08/13 09:31:44;569421.00;1.90;981.45;0.00;0.00;0.62;;;;;30.10;1.00;;;;;;2282161;60;1323;-89
2023/08/13 09:39:17;1084773.00;3.62;1883.21;0.00;0.00;0.62;;;;;30.30;1.60;;;;;;1627857;40;3442;-89
2023/08/13 09:41:46;76166.00;0.25;132.41;0.00;0.00;0.62;;;;;30.10;2.70;;;;;;2280573;61;1761;-88
2023/08/13 09:46:44;522625.00;1.74;900.79;0.00;0.00;0.62;;;;;30.90;2.00;;;;;;2278213;61;1376;-88
2023/08/13 09:49:13;100949.00;0.34;175.21;0.00;0.00;0.62;;;;;31.20;1.00;;;;;;2276382;61;1576;-89
2023/08/13 09:51:44;183777.00;0.61;317.99;40787.00;0.14;71.25;;;;;31.20;1.00;;;;;;2276405;61;995;-88
2023/08/13 09:54:20;127086.00;0.42;220.30;0.00;0.00;0.62;;;;;31.50;1.00;;;;;;2276304;61;2393;-88
2023/08/13 09:56:56;206313.00;0.69;356.79;0.00;0.00;0.62;;;;;30.90;1.00;;;;;;2276150;61;1087;-89
2023/08/13 09:59:24;105969.00;0.35;183.87;0.00;0.00;0.62;;;;;31.10;1.00;;;;;;2282933;39;3734;-90
2023/08/13 10:01:52;343274.00;1.14;592.30;0.00;0.00;0.62;;;;;31.20;1.00;;;;;;2280220;61;1656;-87
2023/08/13 10:04:19;0.00;0.00;0.62;0.00;0.00;0.62;;;;;30.80;1.00;;;;;;2280401;61;1922;-87
2023/08/13 10:06:46;37293.00;0.12;65.20;0.00;0.00;0.62;;;;;30.80;1.00;;;;;;2280419;61;2241;-89
2023/08/13 10:09:15;0.00;0.00;0.62;0.00;0.00;0.62;;;;;30.90;1.00;;;;;;2280469;61;1717;-88
2023/08/13 10:11:43;303663.00;1.01;524.22;0.00;0.00;0.62;;;;;30.70;1.00;;;;;;2280409;61;1122;-88
2023/08/13 10:14:10;377270.00;1.26;650.73;0.00;0.00;0.62;;;;;30.50;1.10;;;;;;2287198;40;3593;-88
2023/08/13 10:29:16;1861584.00;6.21;3343.88;73372.00;0.24;127.59;;;;;30.10;1.00;;;;;;2326431;39;3696;-90
2023/08/13 10:31:53;1305440.00;4.35;2282.06;59965.00;0.20;104.42;;;;;30.30;1.00;;;;;;2312097;40;3772;-89
2023/08/13 10:36:53;1601468.00;5.34;2835.54;54147.00;0.18;94.36;;;;;29.80;2.60;;;;;;2290410;39;3529;-88
2023/08/13 10:39:34;934187.00;3.11;1616.24;129499.00;0.43;224.47;;;;;30.10;1.20;;;;;;2280333;61;1101;-88
2023/08/13 10:42:04;731874.00;2.44;1262.56;25128.00;0.08;44.15;;;;;30.50;1.20;;;;;;2301666;40;3730;-88
2023/08/13 10:50:26;2643249.00;8.81;5039.65;52034.00;0.17;90.70;;;;;29.50;3.40;;;;;;2294197;60;1274;-88
2023/08/13 10:52:53;1413003.00;4.71;2480.46;61484.00;0.20;107.04;;;;;29.60;4.40;;;;;;2287825;60;1368;-88
2023/08/13 10:55:24;696101.00;2.32;1200.48;63453.00;0.21;110.45;;;;;30.00;2.10;;;;;;2287942;60;1031;-90
2023/08/13 11:00:28;206033.00;0.69;356.31;48886.00;0.16;85.26;;;;;30.40;1.10;;;;;;1706950;40;3211;-88
2023/08/13 11:02:58;341607.00;1.14;589.44;57553.00;0.19;100.25;;;;;30.50;1.20;;;;;;2295639;40;3671;-88
2023/08/13 11:05:32;0.00;0.00;0.62;0.00;0.00;0.62;;;;;30.00;2.10;;;;;;2280110;55;3728;-86
2023/08/13 11:10:30;820752.00;2.74;1417.34;0.00;0.00;0.62;;;;;30.20;2.90;;;;;;2276611;61;1417;-88
2023/08/13 11:17:56;806512.00;2.69;1392.48;86406.00;0.29;150.10;;;;;30.50;1.50;;;;;;1968058;40;3474;-91
2023/08/13 11:27:55;968777.00;3.23;1677.25;0.00;0.00;0.62;;;;;30.30;1.10;;;;;;2288522;55;3675;-89
2023/08/13 11:32:56;1980029.00;6.60;3583.40;57941.00;0.19;100.92;;;;;30.70;1.20;;;;;;2291894;56;3633;-89
2023/08/13 11:35:23;855158.00;2.85;1477.49;172723.00;0.58;298.96;;;;;30.90;1.00;;;;;;2275335;61;1023;-89
2023/08/13 11:55:27;524945.00;1.75;904.78;0.00;0.00;0.62;;;;;29.90;2.10;;;;;;2269974;61;1326;-91
2023/08/13 11:57:56;471876.00;1.57;813.42;0.00;0.00;0.62;;;;;29.90;2.10;;;;;;2267995;61;396;-92
2023/08/13 12:20:24;602644.00;2.01;1038.79;0.00;0.00;0.62;;;;;29.20;4.40;;;;;;2328709;55;3627;-89
2023/08/13 12:22:52;139684.00;0.47;242.03;0.00;0.00;0.62;;;;;29.20;5.60;;;;;;2268629;61;1685;-89
2023/08/13 12:25:19;220360.00;0.73;380.96;46532.00;0.16;81.19;;;;;29.40;4.70;;;;;;2301152;40;3650;-91
2023/08/13 12:27:48;163300.00;0.54;282.72;0.00;0.00;0.62;;;;;29.90;4.00;;;;;;2272598;61;1927;-88
2023/08/13 12:30:15;17642.00;0.06;31.19;0.00;0.00;0.62;;;;;30.20;2.90;;;;;;2272368;61;1434;-90
2023/08/13 12:35:14;987114.00;3.29;1709.66;0.00;0.00;0.62;;;;;30.70;1.30;;;;;;1563504;40;3430;-89
2023/08/13 12:37:43;99157.00;0.33;172.12;0.00;0.00;0.62;;;;;30.80;1.40;;;;;;2272508;61;2025;-87
2023/08/13 12:40:10;236620.00;0.79;408.94;0.00;0.00;0.62;;;;;31.10;1.00;;;;;;2301466;40;3732;-88
2023/08/13 12:42:37;94953.00;0.32;164.86;0.00;0.00;0.62;;;;;31.30;1.00;;;;;;2272484;61;1014;-90
2023/08/13 12:50:07;1055964.00;3.52;1831.85;0.00;0.00;0.62;;;;;31.30;1.00;;;;;;2274209;61;1900;-88
2023/08/13 12:52:35;993779.00;3.31;1721.46;107938.00;0.36;187.27;;;;;31.20;1.00;;;;;;2278162;40;3575;-89
2023/08/13 12:55:04;1835320.00;6.12;3291.48;77022.00;0.26;133.89;;;;;30.70;1.00;;;;;;2277280;55;3883;-89
2023/08/13 13:04:59;1799351.00;6.00;3220.14;117925.00;0.39;204.50;;;;;30.40;1.00;;;;;;2362361;40;3702;-89
2023/08/13 13:32:37;1097917.00;3.66;1906.70;0.00;0.00;0.62;;;;;30.10;1.00;;;;;;1991017;55;3557;-89
2023/08/13 14:02:33;1459062.00;4.86;2566.32;0.00;0.00;0.62;;;;;29.90;1.00;;;;;;1967654;40;3517;-89
2023/08/13 14:20:12;1245878.00;4.15;2173.39;0.00;0.00;0.62;;;;;30.50;1.00;;;;;;2204111;40;3468;-93
2023/08/13 14:27:51;1330932.00;4.44;2328.83;40958.00;0.14;71.55;;;;;29.50;1.00;;;;;;2270831;61;1052;-93
2023/08/13 14:33:08;814864.00;2.72;1407.06;73258.00;0.24;127.39;;;;;29.60;1.00;;;;;;2294530;56;2149;-89
2023/08/13 14:56:03;2342565.00;7.81;4353.09;92764.00;0.31;161.08;;;;;30.60;1.00;;;;;;1202962;40;3433;-88
2023/08/13 15:01:01;864158.00;2.88;1493.25;58020.00;0.19;101.05;;;;;30.20;1.00;;;;;;2270363;61;1313;-93
2023/08/13 15:03:28;330433.00;1.10;570.23;60759.00;0.20;105.79;;;;;30.20;1.00;;;;;;2268776;61;1309;-90
2023/08/13 15:05:55;1808577.00;6.03;3238.39;286591.00;0.96;494.87;;;;;30.40;1.00;;;;;;2268625;61;1756;-91
2023/08/13 15:20:54;926252.00;3.09;1602.27;0.00;0.00;0.62;;;;;29.60;1.00;;;;;;1650522;40;3481;-87
2023/08/13 15:30:57;1048947.00;3.50;1819.36;0.00;0.00;0.62;;;;;29.20;1.00;;;;;;2223548;55;3586;-88
2023/08/13 16:44:07;696946.00;2.32;1201.94;33949.00;0.11;59.42;;;;;28.50;6.00;;;;;;2266084;61;1324;-90
2023/08/13 16:46:34;665832.00;2.22;1148.04;20474.00;0.07;36.09;;;;;28.80;2.90;;;;;;2264228;61;1638;-89
2023/08/13 16:49:01;331726.00;1.11;572.45;51408.00;0.17;89.62;;;;;29.20;2.30;;;;;;2264246;61;1997;-89
2023/08/13 16:51:28;120151.00;0.40;208.34;0.00;0.00;0.62;;;;;28.90;1.10;;;;;;2264255;61;1451;-88
2023/08/13 16:53:55;120809.00;0.40;209.48;0.00;0.00;0.62;;;;;28.50;1.00;;;;;;2264202;61;1283;-86
2023/08/13 16:56:23;726490.00;2.42;1253.21;0.00;0.00;0.62;;;;;28.20;1.00;;;;;;2264158;61;1055;-89
2023/08/13 16:58:50;377257.00;1.26;650.71;57309.00;0.19;99.82;;;;;28.40;1.00;;;;;;2264267;61;1123;-88
2023/08/13 17:01:20;25379.00;0.08;44.58;0.00;0.00;0.62;;;;;28.60;1.00;;;;;;2264127;61;984;-89
2023/08/13 17:03:47;175225.00;0.58;303.27;0.00;0.00;0.62;;;;;28.80;1.00;;;;;;2264200;61;1625;-89
2023/08/13 17:06:14;339922.00;1.13;586.54;25940.00;0.09;45.55;;;;;28.90;1.00;;;;;;2264138;61;1173;-89
2023/08/13 17:08:41;697530.00;2.33;1202.96;87649.00;0.29;152.25;;;;;28.60;1.00;;;;;;2264004;61;1998;-87
2023/08/13 17:11:08;1417481.00;4.72;2488.78;65282.00;0.22;113.61;;;;;28.50;1.00;;;;;;2264218;61;1030;-88
2023/08/13 17:13:35;501544.00;1.67;864.48;130308.00;0.43;225.86;;;;;28.60;1.00;;;;;;2264116;61;1250;-87
2023/08/13 17:16:04;208657.00;0.70;360.82;64805.00;0.22;112.78;;;;;28.60;1.00;;;;;;2264156;61;1104;-87
2023/08/13 17:18:32;72521.00;0.24;126.12;0.00;0.00;0.62;;;;;28.50;1.00;;;;;;2264113;61;1146;-88
2023/08/13 17:20:59;158907.00;0.53;275.16;0.00;0.00;0.62;;;;;28.30;1.00;;;;;;2264126;61;1150;-87
2023/08/13 17:40:57;983444.00;3.28;1703.17;0.00;0.00;0.62;;;;;27.70;2.60;;;;;;1895292;56;3666;-89
2023/08/13 19:08:15;1194913.00;3.98;2081.03;65249.00;0.22;113.55;;;;;27.30;3.50;;;;;;2278473;61;1044;-91
2023/08/13 19:10:44;443542.00;1.48;764.67;62564.00;0.21;108.91;;;;;27.20;3.70;;;;;;2277133;61;1930;-89
2023/08/13 19:13:12;51956.00;0.17;90.57;0.00;0.00;0.62;;;;;27.20;4.00;;;;;;2276677;61;1608;-89
2023/08/13 20:01:25;1278334.00;4.26;2232.51;68230.00;0.23;118.70;;;;;26.20;7.20;;;;;;2509724;40;3540;31
2023/08/13 20:53:00;1488550.00;4.96;2621.59;67827.00;0.23;118.01;;;;;25.70;10.20;;;;;;2513542;55;3614;31
2023/08/13 22:09:00;2330249.00;7.77;4325.96;121704.00;0.41;211.02;;;;;24.90;14.50;;;;;;2520077;40;3512;31
